Overview Statistics Trail Chart Weather Telemetry Raw packets
 

This is the latest recevied weather packets stored in our database for station/object OE5RBO. If no packets are shown the sender has not sent any weather packets the latest 10 day(s).

<< 35 36 37 38 39 40 41 >>
Time Temp. Humidity Pressure Rain* Wind** Luminosity Snow
1788016239 26.11° C 52% 1016.6 hPa 0 mm - - -
1788015639 28.89° C 50% 1016.7 hPa 0 mm - - -
1788015039 27.22° C 52% 1016.8 hPa 0 mm - - -
1788014438 27.22° C 52% 1016.7 hPa 0 mm - - -
1788013838 26.11° C 54% 1016.7 hPa 0 mm - - -
1788013238 26.67° C 53% 1016.8 hPa 0 mm - - -
1788012637 28.33° C 48% 1016.9 hPa 0 mm - - -
1788011437 27.78° C 49% 1017.1 hPa 0 mm - - -
1788010837 27.22° C 52% 1017.2 hPa 0 mm - - -
1788010236 27.78° C 50% 1017.3 hPa 0 mm - - -
1788009635 28.33° C 53% 1017.3 hPa 0 mm - - -
1788009035 27.22° C 54% 1017.5 hPa 0 mm - - -
1788007835 26.11° C 59% 1017.5 hPa 0 mm - - -
1788007234 25° C 58% 1017.6 hPa 0 mm - - -
1788006634 26.67° C 56% 1017.7 hPa 0 mm - - -
1788006033 26.11° C 59% 1017.7 hPa 0 mm - - -
1788005433 26.11° C 59% 1017.9 hPa 0 mm - - -
1788004833 25° C 64% 1017.9 hPa 0 mm - - -
1788004232 23.89° C 63% 1018.1 hPa 0 mm - - -
1788003632 23.89° C 65% 1018.1 hPa 0 mm - - -
1788003031 24.44° C 63% 1018.2 hPa 0 mm - - -
1788002431 24.44° C 65% 1018.3 hPa 0 mm - - -
1788001831 23.33° C 68% 1018.3 hPa 0 mm - - -
1788001231 24.44° C 63% 1018.4 hPa 0 mm - - -
1788000630 24.44° C 68% 1018.5 hPa 0 mm - - -

* Rain since midnight (hover to see other rain measurements)
** Current wind speed in m/s (hover to see current wind gust speed)